Αναφορές METAR Αεροδρομίων

 

LGTS - THESSALONIKI - GREECE
Ενημερώθηκε: 30/11/2022 16:50
Ασθενής βροχή, Σχεδόν νεφελώδης
Ασθενής βροχή, Σχεδόν νεφελώδης
 Ανεμος από Α
Ανεμος: Α 28 km/h
Θερμοκρασία: 13°C
Σημείο Δρόσου: 10°C
Υγρασία: 82%
Βαρόμετρο: 1013 hPa
Περίληψη: Ασθενής βροχή
Clouds: Σχεδόν νεφελώδης
Visibility: 10 km
Cloud details: Αραιές Νεφώσεις 366 m
Σχεδόν νεφελώδης 1067 m
2022/11/30 14:50 LGTS 301450Z 09015KT 9999 -RA FEW012 BKN035 13/10 Q1013 TEMPO 6000 RA
LGLR - LARTISA - GREECE
Ενημερώθηκε: 30/11/2022 16:50
Ασθενής βροχή, Συννεφιά
Ασθενής βροχή, Συννεφιά
 Ανεμος από calm
Ανεμος: Απνοια
Θερμοκρασία: 8°C
Σημείο Δρόσου: 8°C
Υγρασία: 100%
Βαρόμετρο: 1013 hPa
Περίληψη: Ασθενής βροχή
Clouds: Συννεφιά
Visibility: 3 km
Cloud details: Μερικώς νεφελώδης 183 m
Σχεδόν νεφελώδης 610 m
Συννεφιά 2134 m
2022/11/30 14:50 LGLR 301450Z 00000KT 3000 -RA SCT006 BKN020 OVC070 08/08 Q1013 RERA YLO
 
LGKZ - KOZANI - GREECE
Ενημερώθηκε: 30/11/2022 16:50
Ασθενής βροχή
Ασθενής βροχή
 Ανεμος από Β
Ανεμος: Β 7 km/h
Θερμοκρασία: 6°C
Wind Chill: 4°C
Σημείο Δρόσου: 5°C
Υγρασία: 93%
Βαρόμετρο: 1013 hPa
Περίληψη: Ασθενής βροχή
2022/11/30 14:50 LGKZ 301450Z AUTO 36004KT 300V040 //// -RA ////// 06/05 Q1013 RE//
LGKV - KAVALA - GREECE
Ενημερώθηκε: 30/11/2022 16:50
Συννεφιά
Συννεφιά
 Ανεμος από ΒΑ
Ανεμος: ΒΑ 24 km/h
Θερμοκρασία: 12°C
Σημείο Δρόσου: 8°C
Υγρασία: 77%
Βαρόμετρο: 1015 hPa
Clouds: Συννεφιά
Visibility: 10 km
Cloud details: Αραιές Νεφώσεις 610 m
Μερικώς νεφελώδης 1067 m
Συννεφιά 2438 m
2022/11/30 14:50 LGKV 301450Z 05013KT 9999 FEW020 SCT035 OVC080 12/08 Q1015
 
LGIO - IOANNINA - GREECE
Ενημερώθηκε: 30/11/2022 16:50
Σχεδόν νεφελώδης
Σχεδόν νεφελώδης
 Ανεμος από varies
Ανεμος: varies 4 km/h
Θερμοκρασία: 12°C
Σημείο Δρόσου: 7°C
Υγρασία: 72%
Βαρόμετρο: 1009 hPa
Clouds: Σχεδόν νεφελώδης
Visibility: 10 km
Cloud details: Σχεδόν νεφελώδης 1067 m
Σχεδόν νεφελώδης 2134 m
2022/11/30 14:50 LGIO 301450Z VRB02KT 9999 BKN035 BKN070 12/07 Q1009
LGBL - BOLOS - GREECE
Ενημερώθηκε: 30/11/2022 16:50
Ασθενής βροχή, Συννεφιά
Ασθενής βροχή, Συννεφιά
 Ανεμος από Δ
Ανεμος: Δ 15 km/h
Θερμοκρασία: 9°C
Wind Chill: 7°C
Σημείο Δρόσου: 8°C
Υγρασία: 94%
Βαρόμετρο: 1012 hPa
Περίληψη: Ασθενής βροχή
Clouds: Συννεφιά
Visibility: 5 km
Cloud details: Αραιές Νεφώσεις 305 m
Σχεδόν νεφελώδης 610 m
Συννεφιά 2134 m
2022/11/30 14:50 LGBL 301450Z 27008KT 5000 -RA FEW010 BKN020 OVC070 09/08 Q1012
 
LGMT - MITILINI - GREECE
Ενημερώθηκε: 30/11/2022 16:50
Μερικώς νεφελώδης
Μερικώς νεφελώδης
 Ανεμος από varies
Ανεμος: varies 6 km/h
Θερμοκρασία: 15°C
Σημείο Δρόσου: 10°C
Υγρασία: 72%
Βαρόμετρο: 1014 hPa
Clouds: Μερικώς νεφελώδης
Visibility: 10 km
Cloud details: Μερικώς νεφελώδης 610 m
2022/11/30 14:50 LGMT 301450Z VRB03KT 9999 SCT020 15/10 Q1014
LGAV - ATHENS - GREECE
Ενημερώθηκε: 30/11/2022 16:50
Σχεδόν νεφελώδης
Σχεδόν νεφελώδης
 Ανεμος από calm
Ανεμος: Απνοια
Θερμοκρασία: 13°C
Σημείο Δρόσου: 10°C
Υγρασία: 82%
Βαρόμετρο: 1011 hPa
Clouds: Σχεδόν νεφελώδης
Visibility: 10 km
Cloud details: Αραιές Νεφώσεις 549 m
Σχεδόν νεφελώδης 762 m
2022/11/30 14:50 LGAV 301450Z 00000KT 9999 FEW018 BKN025 13/10 Q1011 NOSIG
 
LGRP - RODOS - GREECE
Ενημερώθηκε: 30/11/2022 16:50
Σχεδόν νεφελώδης
Σχεδόν νεφελώδης
 Ανεμος από varies
Ανεμος: varies 6 km/h
Θερμοκρασία: 17°C
Σημείο Δρόσου: 14°C
Υγρασία: 83%
Βαρόμετρο: 1013 hPa
Clouds: Σχεδόν νεφελώδης
Visibility: 10 km
Cloud details: Αραιές Νεφώσεις 549 m
Σχεδόν νεφελώδης 610 m
2022/11/30 14:50 LGRP 301450Z VRB03KT 9999 FEW018TCU BKN020 17/14 Q1013 NOSIG
LGIR - HRAKLIO/KRITI - GREECE
Ενημερώθηκε: 30/11/2022 16:50
Σχεδόν νεφελώδης
Σχεδόν νεφελώδης
 Ανεμος από ΝΝΑ
Ανεμος: ΝΝΑ 15 km/h
Θερμοκρασία: 16°C
Σημείο Δρόσου: 14°C
Υγρασία: 88%
Βαρόμετρο: 1011 hPa
Clouds: Σχεδόν νεφελώδης
Visibility: 10 km
Cloud details: Αραιές Νεφώσεις 549 m
Σχεδόν νεφελώδης 762 m
Σχεδόν νεφελώδης 2438 m
2022/11/30 14:50 LGIR 301450Z 15008KT 9999 FEW018TCU BKN025 BKN080 16/14 Q1011 NOSIG
 
LGMK - MIKONOS - GREECE
Ενημερώθηκε: 30/11/2022 16:50
Light thunderstorm, Βροχή, Μερικώς νεφελώδης
Light thunderstorm, Βροχή, Μερικώς νεφελώδης
 Ανεμος από varies
Ανεμος: varies 0 km/h
Θερμοκρασία: 15°C
Σημείο Δρόσου: 12°C
Υγρασία: 82%
Βαρόμετρο: 1011 hPa
Περίληψη: Light thunderstorm, Βροχή
Clouds: Μερικώς νεφελώδης
Visibility: 9 km
Cloud details: Αραιές Νεφώσεις 305 m
Αραιές Νεφώσεις 549 m
Μερικώς νεφελώδης 762 m
2022/11/30 14:50 LGMK 301450Z /////KT 9000 -TSRA FEW010 FEW018CB SCT025 15/12 Q1011
LGKR - KERKIRA - GREECE
Ενημερώθηκε: 30/11/2022 16:50
Ασθενής βροχή, Συννεφιά
Ασθενής βροχή, Συννεφιά
 Ανεμος από ΝΝΑ
Ανεμος: ΝΝΑ 15 km/h
Θερμοκρασία: 16°C
Σημείο Δρόσου: 10°C
Υγρασία: 68%
Βαρόμετρο: 1007 hPa
Περίληψη: Ασθενής βροχή
Clouds: Συννεφιά
Visibility: 10 km
Cloud details: Αραιές Νεφώσεις 610 m
Σχεδόν νεφελώδης 1067 m
Συννεφιά 2438 m
2022/11/30 14:50 LGKR 301450Z 15008KT 9999 -RA FEW020 BKN035 OVC080 16/10 Q1007 NOSIG